Terminal Aerodrome Forecast
Issued by NWS Grand Forks, ND

Home | Current Version | Previous Version | Graphics & Text | Print | Product List | Glossary On
Versions: 1 2 3 4 5 6 7 8 9 10 11 12 13 14 15 16 17
132
FTUS43 KFGF 251736
TAFFAR
TAF
KFAR 251736Z 2518/2618 30023G30KT P6SM OVC020
     FM252000 31026G40KT P6SM VCSH OVC030
     FM252200 31025G37KT P6SM OVC040
     FM260000 31018G27KT P6SM BKN050
     FM260100 30014KT P6SM BKN060
     FM260200 30013KT P6SM BKN070
     FM260500 30013KT P6SM SCT130=

USA.gov is the U.S. government's official web portal to all federal, state and local government web resources and services.